sensor_id;sensor_type;location;lat;lon;timestamp;temperature;humidity
24254;DHT22;12381;51.152;4.172;2022-07-23T00:00:32;19.20;99.90
24254;DHT22;12381;51.152;4.172;2022-07-23T00:02:57;19.10;99.90
24254;DHT22;12381;51.152;4.172;2022-07-23T00:05:23;19.10;99.90
24254;DHT22;12381;51.152;4.172;2022-07-23T00:07:49;19.10;99.90
24254;DHT22;12381;51.152;4.172;2022-07-23T00:10:14;19.20;99.90
24254;DHT22;12381;51.152;4.172;2022-07-23T00:12:41;19.20;99.90
24254;DHT22;12381;51.152;4.172;2022-07-23T00:15:08;19.10;99.90
24254;DHT22;12381;51.152;4.172;2022-07-23T00:17:34;19.20;99.90
24254;DHT22;12381;51.152;4.172;2022-07-23T00:20:00;19.10;99.90
24254;DHT22;12381;51.152;4.172;2022-07-23T00:22:25;19.10;99.90
24254;DHT22;12381;51.152;4.172;2022-07-23T00:24:53;19.10;99.90
24254;DHT22;12381;51.152;4.172;2022-07-23T00:27:18;19.10;99.90
24254;DHT22;12381;51.152;4.172;2022-07-23T00:29:44;19.10;99.90
24254;DHT22;12381;51.152;4.172;2022-07-23T00:32:09;19.10;99.90
24254;DHT22;12381;51.152;4.172;2022-07-23T00:34:35;19.10;99.90
24254;DHT22;12381;51.152;4.172;2022-07-23T00:37:01;19.00;99.90
24254;DHT22;12381;51.152;4.172;2022-07-23T00:39:26;18.90;99.90
24254;DHT22;12381;51.152;4.172;2022-07-23T00:41:52;18.80;99.90
24254;DHT22;12381;51.152;4.172;2022-07-23T00:46:47;18.80;99.90
24254;DHT22;12381;51.152;4.172;2022-07-23T00:49:13;18.70;99.90
24254;DHT22;12381;51.152;4.172;2022-07-23T00:51:39;18.70;99.90
24254;DHT22;12381;51.152;4.172;2022-07-23T00:54:05;18.70;99.90
24254;DHT22;12381;51.152;4.172;2022-07-23T00:56:30;18.70;99.90
24254;DHT22;12381;51.152;4.172;2022-07-23T00:58:57;18.70;99.90
24254;DHT22;12381;51.152;4.172;2022-07-23T01:01:22;18.60;99.90
24254;DHT22;12381;51.152;4.172;2022-07-23T01:03:48;18.60;99.90
24254;DHT22;12381;51.152;4.172;2022-07-23T01:06:14;18.50;99.90
24254;DHT22;12381;51.152;4.172;2022-07-23T01:08:41;18.50;99.90
24254;DHT22;12381;51.152;4.172;2022-07-23T01:11:07;18.40;99.90
24254;DHT22;12381;51.152;4.172;2022-07-23T01:13:33;18.50;99.90
24254;DHT22;12381;51.152;4.172;2022-07-23T01:15:59;18.40;99.90
24254;DHT22;12381;51.152;4.172;2022-07-23T01:18:25;18.40;99.90
24254;DHT22;12381;51.152;4.172;2022-07-23T01:20:51;18.40;99.90
24254;DHT22;12381;51.152;4.172;2022-07-23T01:23:16;18.40;99.90
24254;DHT22;12381;51.152;4.172;2022-07-23T01:25:52;18.40;99.90
24254;DHT22;12381;51.152;4.172;2022-07-23T01:28:17;18.40;99.90
24254;DHT22;12381;51.152;4.172;2022-07-23T01:30:44;18.30;99.90
24254;DHT22;12381;51.152;4.172;2022-07-23T01:33:09;18.30;99.90
24254;DHT22;12381;51.152;4.172;2022-07-23T01:35:35;18.40;99.90
24254;DHT22;12381;51.152;4.172;2022-07-23T01:38:01;18.30;99.90
24254;DHT22;12381;51.152;4.172;2022-07-23T01:40:26;18.30;99.90
24254;DHT22;12381;51.152;4.172;2022-07-23T01:42:52;18.20;99.90
24254;DHT22;12381;51.152;4.172;2022-07-23T01:45:18;18.10;99.90
24254;DHT22;12381;51.152;4.172;2022-07-23T01:47:44;18.10;99.90
24254;DHT22;12381;51.152;4.172;2022-07-23T01:50:10;18.10;99.90
24254;DHT22;12381;51.152;4.172;2022-07-23T01:52:35;18.10;99.90
24254;DHT22;12381;51.152;4.172;2022-07-23T01:55:01;18.10;99.90
24254;DHT22;12381;51.152;4.172;2022-07-23T01:57:27;18.10;99.90
24254;DHT22;12381;51.152;4.172;2022-07-23T01:59:52;18.00;99.90
24254;DHT22;12381;51.152;4.172;2022-07-23T02:02:18;18.00;99.90
24254;DHT22;12381;51.152;4.172;2022-07-23T02:04:44;18.00;99.90
24254;DHT22;12381;51.152;4.172;2022-07-23T02:07:09;18.00;99.90
24254;DHT22;12381;51.152;4.172;2022-07-23T02:09:35;18.00;99.90
24254;DHT22;12381;51.152;4.172;2022-07-23T02:12:01;18.00;99.90
24254;DHT22;12381;51.152;4.172;2022-07-23T02:14:27;18.00;99.90
24254;DHT22;12381;51.152;4.172;2022-07-23T02:16:52;18.00;99.90
24254;DHT22;12381;51.152;4.172;2022-07-23T02:21:50;17.90;99.90
24254;DHT22;12381;51.152;4.172;2022-07-23T02:24:16;17.90;99.90
24254;DHT22;12381;51.152;4.172;2022-07-23T02:26:42;17.80;99.90
24254;DHT22;12381;51.152;4.172;2022-07-23T02:29:08;17.90;99.90
24254;DHT22;12381;51.152;4.172;2022-07-23T02:31:34;17.80;99.90
24254;DHT22;12381;51.152;4.172;2022-07-23T02:34:00;17.80;99.90
24254;DHT22;12381;51.152;4.172;2022-07-23T02:36:26;17.70;99.90
24254;DHT22;12381;51.152;4.172;2022-07-23T02:38:51;17.80;99.90
24254;DHT22;12381;51.152;4.172;2022-07-23T02:41:17;17.80;99.90
24254;DHT22;12381;51.152;4.172;2022-07-23T02:43:43;17.80;99.90
24254;DHT22;12381;51.152;4.172;2022-07-23T02:46:08;17.70;99.90
24254;DHT22;12381;51.152;4.172;2022-07-23T02:48:34;17.70;99.90
24254;DHT22;12381;51.152;4.172;2022-07-23T02:53:32;17.70;99.90
24254;DHT22;12381;51.152;4.172;2022-07-23T02:55:58;17.70;99.90
24254;DHT22;12381;51.152;4.172;2022-07-23T02:58:24;17.60;99.90
24254;DHT22;12381;51.152;4.172;2022-07-23T03:00:52;17.60;99.90
24254;DHT22;12381;51.152;4.172;2022-07-23T03:03:18;17.60;99.90
24254;DHT22;12381;51.152;4.172;2022-07-23T03:05:44;17.60;99.90
24254;DHT22;12381;51.152;4.172;2022-07-23T03:08:09;17.60;99.90
24254;DHT22;12381;51.152;4.172;2022-07-23T03:10:35;17.50;99.90
24254;DHT22;12381;51.152;4.172;2022-07-23T03:13:01;17.60;99.90
24254;DHT22;12381;51.152;4.172;2022-07-23T03:15:26;17.50;99.90
24254;DHT22;12381;51.152;4.172;2022-07-23T03:17:52;17.50;99.90
24254;DHT22;12381;51.152;4.172;2022-07-23T03:20:18;17.50;99.90
24254;DHT22;12381;51.152;4.172;2022-07-23T03:22:43;17.40;99.90
24254;DHT22;12381;51.152;4.172;2022-07-23T03:25:09;17.40;99.90
24254;DHT22;12381;51.152;4.172;2022-07-23T03:27:35;17.40;99.90
24254;DHT22;12381;51.152;4.172;2022-07-23T03:30:01;17.40;99.90
24254;DHT22;12381;51.152;4.172;2022-07-23T03:32:27;17.40;99.90
24254;DHT22;12381;51.152;4.172;2022-07-23T03:34:52;17.50;99.90
24254;DHT22;12381;51.152;4.172;2022-07-23T03:37:19;17.40;99.90
24254;DHT22;12381;51.152;4.172;2022-07-23T03:39:45;17.40;99.90
24254;DHT22;12381;51.152;4.172;2022-07-23T03:42:11;17.40;99.90
24254;DHT22;12381;51.152;4.172;2022-07-23T03:44:36;17.40;99.90
24254;DHT22;12381;51.152;4.172;2022-07-23T03:47:03;17.30;99.90
24254;DHT22;12381;51.152;4.172;2022-07-23T03:49:29;17.30;99.90
24254;DHT22;12381;51.152;4.172;2022-07-23T03:51:54;17.30;99.90
24254;DHT22;12381;51.152;4.172;2022-07-23T03:54:20;17.30;99.90
24254;DHT22;12381;51.152;4.172;2022-07-23T03:56:46;17.30;99.90
24254;DHT22;12381;51.152;4.172;2022-07-23T03:59:11;17.30;99.90
24254;DHT22;12381;51.152;4.172;2022-07-23T04:01:37;17.30;99.90
24254;DHT22;12381;51.152;4.172;2022-07-23T04:04:03;17.30;99.90
24254;DHT22;12381;51.152;4.172;2022-07-23T04:06:29;17.20;99.90
24254;DHT22;12381;51.152;4.172;2022-07-23T04:11:26;17.30;99.90
24254;DHT22;12381;51.152;4.172;2022-07-23T04:13:52;17.30;99.90
24254;DHT22;12381;51.152;4.172;2022-07-23T04:16:18;17.30;99.90
24254;DHT22;12381;51.152;4.172;2022-07-23T04:18:43;17.20;99.90
24254;DHT22;12381;51.152;4.172;2022-07-23T04:21:09;17.20;99.90
24254;DHT22;12381;51.152;4.172;2022-07-23T04:23:35;17.20;99.90
24254;DHT22;12381;51.152;4.172;2022-07-23T04:26:00;17.30;99.90
24254;DHT22;12381;51.152;4.172;2022-07-23T04:28:26;17.20;99.90
24254;DHT22;12381;51.152;4.172;2022-07-23T04:30:52;17.20;99.90
24254;DHT22;12381;51.152;4.172;2022-07-23T04:33:17;17.30;99.90
24254;DHT22;12381;51.152;4.172;2022-07-23T04:35:43;17.30;99.90
24254;DHT22;12381;51.152;4.172;2022-07-23T04:38:09;17.30;99.90
24254;DHT22;12381;51.152;4.172;2022-07-23T04:40:34;17.30;99.90
24254;DHT22;12381;51.152;4.172;2022-07-23T04:43:00;17.30;99.90
24254;DHT22;12381;51.152;4.172;2022-07-23T04:45:25;17.30;99.90
24254;DHT22;12381;51.152;4.172;2022-07-23T04:47:51;17.30;99.90
24254;DHT22;12381;51.152;4.172;2022-07-23T04:50:17;17.30;99.90
24254;DHT22;12381;51.152;4.172;2022-07-23T04:52:47;17.30;99.90
24254;DHT22;12381;51.152;4.172;2022-07-23T04:55:13;17.30;99.90
24254;DHT22;12381;51.152;4.172;2022-07-23T04:57:39;17.30;99.90
24254;DHT22;12381;51.152;4.172;2022-07-23T05:00:06;17.40;99.90
24254;DHT22;12381;51.152;4.172;2022-07-23T05:02:32;17.40;99.90
24254;DHT22;12381;51.152;4.172;2022-07-23T05:04:57;17.30;99.90
24254;DHT22;12381;51.152;4.172;2022-07-23T05:07:23;17.30;99.90
24254;DHT22;12381;51.152;4.172;2022-07-23T05:09:49;17.30;99.90
24254;DHT22;12381;51.152;4.172;2022-07-23T05:12:15;17.30;99.90
24254;DHT22;12381;51.152;4.172;2022-07-23T05:14:40;17.40;99.90
24254;DHT22;12381;51.152;4.172;2022-07-23T05:17:07;17.50;99.90
24254;DHT22;12381;51.152;4.172;2022-07-23T05:19:34;17.40;99.90
24254;DHT22;12381;51.152;4.172;2022-07-23T05:21:59;17.50;99.90
24254;DHT22;12381;51.152;4.172;2022-07-23T05:24:25;17.50;99.90
24254;DHT22;12381;51.152;4.172;2022-07-23T05:26:51;17.60;99.90
24254;DHT22;12381;51.152;4.172;2022-07-23T05:29:16;17.60;99.90
24254;DHT22;12381;51.152;4.172;2022-07-23T05:31:42;17.70;99.90
24254;DHT22;12381;51.152;4.172;2022-07-23T05:34:08;17.80;99.90
24254;DHT22;12381;51.152;4.172;2022-07-23T05:36:33;17.90;99.90
24254;DHT22;12381;51.152;4.172;2022-07-23T05:38:59;17.90;99.90
24254;DHT22;12381;51.152;4.172;2022-07-23T05:43:56;18.00;99.90
24254;DHT22;12381;51.152;4.172;2022-07-23T05:46:22;18.00;99.90
24254;DHT22;12381;51.152;4.172;2022-07-23T05:48:48;18.00;99.90
24254;DHT22;12381;51.152;4.172;2022-07-23T05:51:25;18.10;99.90
24254;DHT22;12381;51.152;4.172;2022-07-23T05:53:51;18.10;99.90
24254;DHT22;12381;51.152;4.172;2022-07-23T05:56:18;18.20;99.90
24254;DHT22;12381;51.152;4.172;2022-07-23T05:58:44;18.20;99.90
24254;DHT22;12381;51.152;4.172;2022-07-23T06:01:10;18.30;99.90
24254;DHT22;12381;51.152;4.172;2022-07-23T06:03:37;18.30;99.90
24254;DHT22;12381;51.152;4.172;2022-07-23T06:06:03;18.40;99.90
24254;DHT22;12381;51.152;4.172;2022-07-23T06:08:29;18.40;99.90
24254;DHT22;12381;51.152;4.172;2022-07-23T06:10:55;18.50;99.90
24254;DHT22;12381;51.152;4.172;2022-07-23T06:13:20;18.60;99.90
24254;DHT22;12381;51.152;4.172;2022-07-23T06:15:46;18.70;99.90
24254;DHT22;12381;51.152;4.172;2022-07-23T06:18:12;18.70;99.90
24254;DHT22;12381;51.152;4.172;2022-07-23T06:20:38;18.80;99.90
24254;DHT22;12381;51.152;4.172;2022-07-23T06:23:04;18.90;99.90
24254;DHT22;12381;51.152;4.172;2022-07-23T06:25:34;18.80;99.90
24254;DHT22;12381;51.152;4.172;2022-07-23T06:28:00;19.00;99.90
24254;DHT22;12381;51.152;4.172;2022-07-23T06:30:26;19.00;99.90
24254;DHT22;12381;51.152;4.172;2022-07-23T06:32:51;19.20;99.90
24254;DHT22;12381;51.152;4.172;2022-07-23T06:35:17;19.20;99.90
24254;DHT22;12381;51.152;4.172;2022-07-23T06:37:43;19.20;99.90
24254;DHT22;12381;51.152;4.172;2022-07-23T06:40:09;19.20;99.90
24254;DHT22;12381;51.152;4.172;2022-07-23T06:42:35;19.20;99.90
24254;DHT22;12381;51.152;4.172;2022-07-23T06:45:05;19.30;99.90
24254;DHT22;12381;51.152;4.172;2022-07-23T06:47:31;19.30;99.90
24254;DHT22;12381;51.152;4.172;2022-07-23T06:49:57;19.40;99.90
24254;DHT22;12381;51.152;4.172;2022-07-23T06:52:23;19.40;99.90
24254;DHT22;12381;51.152;4.172;2022-07-23T06:54:48;19.50;99.90
24254;DHT22;12381;51.152;4.172;2022-07-23T06:57:15;19.50;99.90
24254;DHT22;12381;51.152;4.172;2022-07-23T06:59:40;19.60;99.90
24254;DHT22;12381;51.152;4.172;2022-07-23T07:02:07;19.70;99.90
24254;DHT22;12381;51.152;4.172;2022-07-23T07:04:33;19.70;99.90
24254;DHT22;12381;51.152;4.172;2022-07-23T07:06:58;19.70;99.90
24254;DHT22;12381;51.152;4.172;2022-07-23T07:09:24;19.70;99.90
24254;DHT22;12381;51.152;4.172;2022-07-23T07:11:50;19.70;99.90
24254;DHT22;12381;51.152;4.172;2022-07-23T07:14:15;19.70;99.90
24254;DHT22;12381;51.152;4.172;2022-07-23T07:16:41;19.80;99.90
24254;DHT22;12381;51.152;4.172;2022-07-23T07:19:07;19.80;99.90
24254;DHT22;12381;51.152;4.172;2022-07-23T07:21:32;19.90;99.90
24254;DHT22;12381;51.152;4.172;2022-07-23T07:23:58;19.90;99.90
24254;DHT22;12381;51.152;4.172;2022-07-23T07:26:24;19.90;99.90
24254;DHT22;12381;51.152;4.172;2022-07-23T07:28:49;20.00;99.90
24254;DHT22;12381;51.152;4.172;2022-07-23T07:31:15;20.10;99.90
24254;DHT22;12381;51.152;4.172;2022-07-23T07:33:41;20.10;99.90
24254;DHT22;12381;51.152;4.172;2022-07-23T07:36:07;20.20;99.90
24254;DHT22;12381;51.152;4.172;2022-07-23T07:38:32;20.20;99.90
24254;DHT22;12381;51.152;4.172;2022-07-23T07:40:58;20.30;99.90
24254;DHT22;12381;51.152;4.172;2022-07-23T07:43:24;20.30;99.90
24254;DHT22;12381;51.152;4.172;2022-07-23T07:45:49;20.40;99.90
24254;DHT22;12381;51.152;4.172;2022-07-23T07:48:15;20.50;99.90
24254;DHT22;12381;51.152;4.172;2022-07-23T07:50:41;20.50;99.90
24254;DHT22;12381;51.152;4.172;2022-07-23T07:53:06;20.60;99.90
24254;DHT22;12381;51.152;4.172;2022-07-23T07:55:32;20.70;99.90
24254;DHT22;12381;51.152;4.172;2022-07-23T07:57:58;20.70;99.90
24254;DHT22;12381;51.152;4.172;2022-07-23T08:00:24;20.70;99.90
24254;DHT22;12381;51.152;4.172;2022-07-23T08:02:51;20.70;99.90
24254;DHT22;12381;51.152;4.172;2022-07-23T08:05:21;20.80;99.90
24254;DHT22;12381;51.152;4.172;2022-07-23T08:07:48;20.80;99.90
24254;DHT22;12381;51.152;4.172;2022-07-23T08:10:14;20.90;99.90
24254;DHT22;12381;51.152;4.172;2022-07-23T08:12:45;20.90;99.90
24254;DHT22;12381;51.152;4.172;2022-07-23T08:15:12;20.90;99.90
24254;DHT22;12381;51.152;4.172;2022-07-23T08:17:38;20.90;99.90
24254;DHT22;12381;51.152;4.172;2022-07-23T08:20:05;20.90;99.90
24254;DHT22;12381;51.152;4.172;2022-07-23T08:25:23;21.00;99.90
24254;DHT22;12381;51.152;4.172;2022-07-23T08:27:50;21.00;99.90
24254;DHT22;12381;51.152;4.172;2022-07-23T08:30:17;21.00;99.90
24254;DHT22;12381;51.152;4.172;2022-07-23T08:33:17;21.10;99.90
24254;DHT22;12381;51.152;4.172;2022-07-23T08:35:47;21.20;99.90
24254;DHT22;12381;51.152;4.172;2022-07-23T08:38:15;21.20;99.90
24254;DHT22;12381;51.152;4.172;2022-07-23T08:40:49;21.30;99.90
24254;DHT22;12381;51.152;4.172;2022-07-23T08:43:25;21.40;99.90
24254;DHT22;12381;51.152;4.172;2022-07-23T08:45:53;21.40;99.90
24254;DHT22;12381;51.152;4.172;2022-07-23T08:48:24;21.50;99.90
24254;DHT22;12381;51.152;4.172;2022-07-23T08:50:57;21.60;99.90
24254;DHT22;12381;51.152;4.172;2022-07-23T08:53:24;21.70;99.90
24254;DHT22;12381;51.152;4.172;2022-07-23T08:55:53;21.70;99.90
24254;DHT22;12381;51.152;4.172;2022-07-23T08:58:19;21.70;99.90
24254;DHT22;12381;51.152;4.172;2022-07-23T09:00:46;21.80;99.90
24254;DHT22;12381;51.152;4.172;2022-07-23T09:03:20;22.00;99.90
24254;DHT22;12381;51.152;4.172;2022-07-23T09:05:47;22.10;99.90
24254;DHT22;12381;51.152;4.172;2022-07-23T09:08:16;22.20;99.90
24254;DHT22;12381;51.152;4.172;2022-07-23T09:10:47;22.20;99.90
24254;DHT22;12381;51.152;4.172;2022-07-23T09:13:34;22.30;99.90
24254;DHT22;12381;51.152;4.172;2022-07-23T09:16:35;22.30;99.90
24254;DHT22;12381;51.152;4.172;2022-07-23T09:18:55;22.40;99.90
24254;DHT22;12381;51.152;4.172;2022-07-23T09:21:29;22.60;99.90
24254;DHT22;12381;51.152;4.172;2022-07-23T09:24:10;22.70;99.90
24254;DHT22;12381;51.152;4.172;2022-07-23T09:26:39;22.80;99.90
24254;DHT22;12381;51.152;4.172;2022-07-23T09:29:12;22.80;99.90
24254;DHT22;12381;51.152;4.172;2022-07-23T09:31:49;22.90;99.90
24254;DHT22;12381;51.152;4.172;2022-07-23T09:34:18;23.00;99.90
24254;DHT22;12381;51.152;4.172;2022-07-23T09:36:45;23.00;99.90
24254;DHT22;12381;51.152;4.172;2022-07-23T09:39:11;23.00;99.90
24254;DHT22;12381;51.152;4.172;2022-07-23T09:41:46;23.10;99.90
24254;DHT22;12381;51.152;4.172;2022-07-23T09:46:38;23.30;99.90
24254;DHT22;12381;51.152;4.172;2022-07-23T09:49:14;23.40;99.90
24254;DHT22;12381;51.152;4.172;2022-07-23T09:51:49;23.50;99.90
24254;DHT22;12381;51.152;4.172;2022-07-23T09:56:52;23.70;99.90
24254;DHT22;12381;51.152;4.172;2022-07-23T09:59:18;23.80;99.90
24254;DHT22;12381;51.152;4.172;2022-07-23T10:01:47;24.10;99.90
24254;DHT22;12381;51.152;4.172;2022-07-23T10:04:14;24.40;99.90
24254;DHT22;12381;51.152;4.172;2022-07-23T10:06:40;24.70;99.90
24254;DHT22;12381;51.152;4.172;2022-07-23T10:09:12;25.10;99.90
24254;DHT22;12381;51.152;4.172;2022-07-23T10:11:37;25.40;99.90
24254;DHT22;12381;51.152;4.172;2022-07-23T10:14:04;25.60;99.90
24254;DHT22;12381;51.152;4.172;2022-07-23T10:16:31;25.90;99.80
24254;DHT22;12381;51.152;4.172;2022-07-23T10:18:57;26.10;98.90
24254;DHT22;12381;51.152;4.172;2022-07-23T10:21:42;26.30;99.80
24254;DHT22;12381;51.152;4.172;2022-07-23T10:27:00;26.60;98.90
24254;DHT22;12381;51.152;4.172;2022-07-23T10:29:42;26.80;98.30
24254;DHT22;12381;51.152;4.172;2022-07-23T10:33:01;26.80;97.90
24254;DHT22;12381;51.152;4.172;2022-07-23T10:36:02;26.70;97.30
24254;DHT22;12381;51.152;4.172;2022-07-23T10:41:13;26.80;96.30
24254;DHT22;12381;51.152;4.172;2022-07-23T10:43:38;26.80;96.60
24254;DHT22;12381;51.152;4.172;2022-07-23T10:46:24;27.00;97.70
24254;DHT22;12381;51.152;4.172;2022-07-23T10:54:37;27.60;94.70
24254;DHT22;12381;51.152;4.172;2022-07-23T10:57:07;27.80;95.30
24254;DHT22;12381;51.152;4.172;2022-07-23T11:02:35;28.10;95.20
24254;DHT22;12381;51.152;4.172;2022-07-23T11:05:13;28.20;93.80
24254;DHT22;12381;51.152;4.172;2022-07-23T11:10:37;28.40;93.20
24254;DHT22;12381;51.152;4.172;2022-07-23T11:26:49;28.80;90.30
24254;DHT22;12381;51.152;4.172;2022-07-23T11:34:42;29.00;86.80
24254;DHT22;12381;51.152;4.172;2022-07-23T11:37:12;29.00;88.00
24254;DHT22;12381;51.152;4.172;2022-07-23T11:39:57;28.90;89.90
24254;DHT22;12381;51.152;4.172;2022-07-23T11:42:23;28.80;87.50
24254;DHT22;12381;51.152;4.172;2022-07-23T11:44:49;28.70;87.80
24254;DHT22;12381;51.152;4.172;2022-07-23T11:47:24;28.70;86.70
24254;DHT22;12381;51.152;4.172;2022-07-23T11:50:02;28.60;90.20
24254;DHT22;12381;51.152;4.172;2022-07-23T11:52:29;28.60;87.40
24254;DHT22;12381;51.152;4.172;2022-07-23T11:54:57;28.60;86.70
24254;DHT22;12381;51.152;4.172;2022-07-23T11:57:29;28.60;87.30
24254;DHT22;12381;51.152;4.172;2022-07-23T12:02:28;28.70;86.00
24254;DHT22;12381;51.152;4.172;2022-07-23T12:04:53;28.90;84.20
24254;DHT22;12381;51.152;4.172;2022-07-23T12:07:35;28.80;87.50
24254;DHT22;12381;51.152;4.172;2022-07-23T12:10:22;29.00;88.10
24254;DHT22;12381;51.152;4.172;2022-07-23T12:12:50;29.10;86.20
24254;DHT22;12381;51.152;4.172;2022-07-23T12:15:19;29.20;85.50
24254;DHT22;12381;51.152;4.172;2022-07-23T12:17:47;29.20;88.90
24254;DHT22;12381;51.152;4.172;2022-07-23T12:20:15;29.30;86.60
24254;DHT22;12381;51.152;4.172;2022-07-23T12:22:43;29.30;88.90
24254;DHT22;12381;51.152;4.172;2022-07-23T12:25:22;29.30;87.70
24254;DHT22;12381;51.152;4.172;2022-07-23T12:28:03;29.20;86.00
24254;DHT22;12381;51.152;4.172;2022-07-23T12:30:32;29.20;87.50
24254;DHT22;12381;51.152;4.172;2022-07-23T12:32:59;29.20;86.20
24254;DHT22;12381;51.152;4.172;2022-07-23T12:35:34;29.00;87.30
24254;DHT22;12381;51.152;4.172;2022-07-23T12:38:07;29.00;89.70
24254;DHT22;12381;51.152;4.172;2022-07-23T12:40:49;29.00;88.00
24254;DHT22;12381;51.152;4.172;2022-07-23T12:43:28;28.90;87.50
24254;DHT22;12381;51.152;4.172;2022-07-23T12:48:31;28.90;90.00
24254;DHT22;12381;51.152;4.172;2022-07-23T12:54:07;29.10;88.50
24254;DHT22;12381;51.152;4.172;2022-07-23T12:56:39;29.20;89.10
24254;DHT22;12381;51.152;4.172;2022-07-23T12:59:11;29.30;88.10
24254;DHT22;12381;51.152;4.172;2022-07-23T13:01:40;29.30;87.60
24254;DHT22;12381;51.152;4.172;2022-07-23T13:06:39;29.30;88.60
24254;DHT22;12381;51.152;4.172;2022-07-23T13:09:07;29.30;90.50
24254;DHT22;12381;51.152;4.172;2022-07-23T13:11:33;29.40;87.50
24254;DHT22;12381;51.152;4.172;2022-07-23T13:14:00;29.40;89.50
24254;DHT22;12381;51.152;4.172;2022-07-23T13:16:29;29.30;89.70
24254;DHT22;12381;51.152;4.172;2022-07-23T13:18:55;29.30;88.20
24254;DHT22;12381;51.152;4.172;2022-07-23T13:21:24;29.30;89.20
24254;DHT22;12381;51.152;4.172;2022-07-23T13:23:50;29.30;86.00
24254;DHT22;12381;51.152;4.172;2022-07-23T13:26:16;29.10;88.20
24254;DHT22;12381;51.152;4.172;2022-07-23T13:28:42;29.10;90.80
24254;DHT22;12381;51.152;4.172;2022-07-23T13:31:08;29.00;87.10
24254;DHT22;12381;51.152;4.172;2022-07-23T13:33:34;28.90;87.80
24254;DHT22;12381;51.152;4.172;2022-07-23T13:36:00;28.80;87.00
24254;DHT22;12381;51.152;4.172;2022-07-23T13:38:26;28.80;87.30
24254;DHT22;12381;51.152;4.172;2022-07-23T13:40:52;28.70;89.00
24254;DHT22;12381;51.152;4.172;2022-07-23T13:43:20;28.70;89.40
24254;DHT22;12381;51.152;4.172;2022-07-23T13:45:47;28.80;87.30
24254;DHT22;12381;51.152;4.172;2022-07-23T13:48:13;28.70;89.00
24254;DHT22;12381;51.152;4.172;2022-07-23T13:50:40;28.80;90.40
24254;DHT22;12381;51.152;4.172;2022-07-23T13:53:12;28.90;88.00
24254;DHT22;12381;51.152;4.172;2022-07-23T13:55:38;29.00;90.00
24254;DHT22;12381;51.152;4.172;2022-07-23T13:58:05;29.10;89.90
24254;DHT22;12381;51.152;4.172;2022-07-23T14:00:32;29.10;90.20
24254;DHT22;12381;51.152;4.172;2022-07-23T14:02:59;29.10;89.60
24254;DHT22;12381;51.152;4.172;2022-07-23T14:05:25;29.10;88.40
24254;DHT22;12381;51.152;4.172;2022-07-23T14:07:51;29.10;90.50
24254;DHT22;12381;51.152;4.172;2022-07-23T14:10:18;29.10;88.20
24254;DHT22;12381;51.152;4.172;2022-07-23T14:12:45;29.10;90.00
24254;DHT22;12381;51.152;4.172;2022-07-23T14:15:12;29.10;90.40
24254;DHT22;12381;51.152;4.172;2022-07-23T14:17:39;29.20;90.20
24254;DHT22;12381;51.152;4.172;2022-07-23T14:20:07;29.20;89.70
24254;DHT22;12381;51.152;4.172;2022-07-23T14:22:33;29.00;89.60
24254;DHT22;12381;51.152;4.172;2022-07-23T14:24:59;28.90;90.20
24254;DHT22;12381;51.152;4.172;2022-07-23T14:27:26;28.90;88.90
24254;DHT22;12381;51.152;4.172;2022-07-23T14:29:52;28.80;90.10
24254;DHT22;12381;51.152;4.172;2022-07-23T14:32:18;28.90;89.70
24254;DHT22;12381;51.152;4.172;2022-07-23T14:34:44;28.80;90.40
24254;DHT22;12381;51.152;4.172;2022-07-23T14:37:11;28.90;90.20
24254;DHT22;12381;51.152;4.172;2022-07-23T14:39:38;28.80;90.00
24254;DHT22;12381;51.152;4.172;2022-07-23T14:42:04;28.80;89.40
24254;DHT22;12381;51.152;4.172;2022-07-23T14:44:30;28.80;90.70
24254;DHT22;12381;51.152;4.172;2022-07-23T14:46:56;28.80;90.50
24254;DHT22;12381;51.152;4.172;2022-07-23T14:49:22;29.00;90.30
24254;DHT22;12381;51.152;4.172;2022-07-23T14:51:47;29.00;90.20
24254;DHT22;12381;51.152;4.172;2022-07-23T14:54:13;29.00;90.50
24254;DHT22;12381;51.152;4.172;2022-07-23T14:56:40;29.10;90.30
24254;DHT22;12381;51.152;4.172;2022-07-23T14:59:06;29.20;90.40
24254;DHT22;12381;51.152;4.172;2022-07-23T15:01:33;29.10;89.60
24254;DHT22;12381;51.152;4.172;2022-07-23T15:03:59;29.00;90.70
24254;DHT22;12381;51.152;4.172;2022-07-23T15:06:25;29.10;90.50
24254;DHT22;12381;51.152;4.172;2022-07-23T15:08:51;29.00;90.70
24254;DHT22;12381;51.152;4.172;2022-07-23T15:11:16;29.00;90.40
24254;DHT22;12381;51.152;4.172;2022-07-23T15:13:42;29.10;90.80
24254;DHT22;12381;51.152;4.172;2022-07-23T15:16:08;29.20;90.40
24254;DHT22;12381;51.152;4.172;2022-07-23T15:18:34;29.30;90.20
24254;DHT22;12381;51.152;4.172;2022-07-23T15:21:00;29.30;88.80
24254;DHT22;12381;51.152;4.172;2022-07-23T15:23:26;29.30;89.20
24254;DHT22;12381;51.152;4.172;2022-07-23T15:25:54;29.20;88.90
24254;DHT22;12381;51.152;4.172;2022-07-23T15:28:20;29.10;89.60
24254;DHT22;12381;51.152;4.172;2022-07-23T15:30:46;29.10;90.10
24254;DHT22;12381;51.152;4.172;2022-07-23T15:33:12;29.00;90.00
24254;DHT22;12381;51.152;4.172;2022-07-23T15:35:38;28.90;89.60
24254;DHT22;12381;51.152;4.172;2022-07-23T15:38:03;28.80;90.10
24254;DHT22;12381;51.152;4.172;2022-07-23T15:40:29;28.90;90.70
24254;DHT22;12381;51.152;4.172;2022-07-23T15:42:55;28.90;90.80
24254;DHT22;12381;51.152;4.172;2022-07-23T15:45:20;28.90;91.40
24254;DHT22;12381;51.152;4.172;2022-07-23T15:47:47;29.00;91.40
24254;DHT22;12381;51.152;4.172;2022-07-23T15:50:14;29.00;91.50
24254;DHT22;12381;51.152;4.172;2022-07-23T15:52:39;29.00;91.20
24254;DHT22;12381;51.152;4.172;2022-07-23T15:55:06;29.00;90.80
24254;DHT22;12381;51.152;4.172;2022-07-23T15:57:32;29.00;90.40
24254;DHT22;12381;51.152;4.172;2022-07-23T15:59:58;29.00;91.00
24254;DHT22;12381;51.152;4.172;2022-07-23T16:02:24;29.00;90.60
24254;DHT22;12381;51.152;4.172;2022-07-23T16:04:50;29.10;91.10
24254;DHT22;12381;51.152;4.172;2022-07-23T16:07:17;29.10;91.20
24254;DHT22;12381;51.152;4.172;2022-07-23T16:09:43;29.10;91.00
24254;DHT22;12381;51.152;4.172;2022-07-23T16:12:09;29.10;90.60
24254;DHT22;12381;51.152;4.172;2022-07-23T16:14:35;29.10;90.40
24254;DHT22;12381;51.152;4.172;2022-07-23T16:17:01;29.10;90.90
24254;DHT22;12381;51.152;4.172;2022-07-23T16:19:27;29.20;91.10
24254;DHT22;12381;51.152;4.172;2022-07-23T16:21:52;29.30;91.80
24254;DHT22;12381;51.152;4.172;2022-07-23T16:24:18;29.20;90.60
24254;DHT22;12381;51.152;4.172;2022-07-23T16:26:44;29.30;90.20
24254;DHT22;12381;51.152;4.172;2022-07-23T16:29:10;29.20;90.20
24254;DHT22;12381;51.152;4.172;2022-07-23T16:31:36;29.20;89.80
24254;DHT22;12381;51.152;4.172;2022-07-23T16:34:02;29.10;90.20
24254;DHT22;12381;51.152;4.172;2022-07-23T16:36:28;29.10;90.00
24254;DHT22;12381;51.152;4.172;2022-07-23T16:38:54;28.90;89.70